createdAt,value
2018-02-16T00:00:07.388Z,44.67
2018-02-16T00:02:35.764Z,47.93
2018-02-16T00:05:04.872Z,44.83
2018-02-16T00:07:33.232Z,44.93
2018-02-16T00:10:02.340Z,43.50
2018-02-16T00:12:30.732Z,44.50
2018-02-16T00:14:59.836Z,49.23
2018-02-16T00:17:28.157Z,47.60
2018-02-16T00:19:56.525Z,40.73
2018-02-16T00:22:24.848Z,44.40
2018-02-16T00:24:53.222Z,48.13
2018-02-16T00:27:22.316Z,45.67
2018-02-16T00:29:50.717Z,48.13
2018-02-16T00:32:19.044Z,49.90
2018-02-16T00:34:48.181Z,47.47
2018-02-16T00:37:16.536Z,46.93
2018-02-16T00:39:45.647Z,44.53
2018-02-16T00:42:14.016Z,46.23
2018-02-16T00:44:42.391Z,48.23
2018-02-16T00:47:10.740Z,52.37
2018-02-16T00:49:39.077Z,51.07
2018-02-16T00:52:07.432Z,47.43
2018-02-16T00:54:35.796Z,44.70
2018-02-16T00:57:04.900Z,48.10
2018-02-16T00:59:33.290Z,47.90
2018-02-16T01:02:01.673Z,43.93
2018-02-16T01:04:30.036Z,49.10
2018-02-16T01:06:58.377Z,43.10
2018-02-16T01:09:26.733Z,44.10
2018-02-16T01:11:55.053Z,54.23
2018-02-16T01:14:24.184Z,44.00
2018-02-16T01:16:52.540Z,47.33
2018-02-16T01:19:21.629Z,46.53
2018-02-16T01:21:50.760Z,49.23
2018-02-16T01:24:19.105Z,47.07
2018-02-16T01:26:48.245Z,47.80
2018-02-16T01:29:16.596Z,48.43
2018-02-16T01:31:44.944Z,44.97
2018-02-16T01:34:14.061Z,45.60
2018-02-16T01:36:43.176Z,51.43
2018-02-16T01:39:11.533Z,51.60
2018-02-16T01:41:39.900Z,47.23
2018-02-16T01:44:08.997Z,50.03
2018-02-16T01:46:38.240Z,50.60
2018-02-16T01:49:06.727Z,51.90
2018-02-16T01:51:35.101Z,51.20
2018-02-16T01:54:03.429Z,52.73
2018-02-16T01:56:32.517Z,58.00
2018-02-16T01:59:00.861Z,55.60
2018-02-16T02:01:29.192Z,52.17
2018-02-16T02:03:57.585Z,46.77
2018-02-16T02:06:25.920Z,55.23
2018-02-16T02:08:54.265Z,52.40
2018-02-16T02:11:22.615Z,51.90
2018-02-16T02:13:50.975Z,50.67
2018-02-16T02:16:20.068Z,42.53
2018-02-16T02:18:48.408Z,47.27
2018-02-16T02:21:16.792Z,50.93
2018-02-16T02:23:45.414Z,55.27
2018-02-16T02:26:13.771Z,54.10
2018-02-16T02:28:42.112Z,47.73
2018-02-16T02:31:10.481Z,51.57
2018-02-16T02:33:38.817Z,47.17
2018-02-16T02:36:07.181Z,49.20
2018-02-16T02:38:36.281Z,53.30
2018-02-16T02:41:05.396Z,53.07
2018-02-16T02:43:33.745Z,54.40
2018-02-16T02:46:02.892Z,53.60
2018-02-16T02:48:31.227Z,50.90
2018-02-16T02:51:00.324Z,53.27
2018-02-16T02:53:28.693Z,44.23
2018-02-16T02:55:57.880Z,49.47
2018-02-16T02:58:26.215Z,49.27
2018-02-16T03:00:54.568Z,50.83
2018-02-16T03:03:22.939Z,47.50
2018-02-16T03:05:52.038Z,47.70
2018-02-16T03:08:20.405Z,48.17
2018-02-16T03:10:49.499Z,54.57
2018-02-16T03:13:18.621Z,45.43
2018-02-16T03:15:46.973Z,42.57
2018-02-16T03:18:15.333Z,45.43
2018-02-16T03:20:44.448Z,42.70
2018-02-16T03:23:12.781Z,49.80
2018-02-16T03:25:41.133Z,44.20
2018-02-16T03:28:09.493Z,39.20
2018-02-16T03:30:37.855Z,48.20
2018-02-16T03:33:06.954Z,43.27
2018-02-16T03:35:36.127Z,50.50
2018-02-16T03:38:04.462Z,44.00
2018-02-16T03:40:32.825Z,43.40
2018-02-16T03:43:01.229Z,42.50
2018-02-16T03:45:29.572Z,44.93
2018-02-16T03:47:57.929Z,44.03
2018-02-16T03:50:27.056Z,44.83
2018-02-16T03:52:55.392Z,44.20
2018-02-16T03:55:24.510Z,42.43
2018-02-16T03:57:52.860Z,45.87
2018-02-16T04:00:21.984Z,44.03
2018-02-16T04:02:50.366Z,54.23
2018-02-16T04:05:19.510Z,46.60
2018-02-16T04:07:47.857Z,47.27
2018-02-16T04:10:16.196Z,49.80
2018-02-16T04:12:45.332Z,46.43
2018-02-16T04:15:13.663Z,54.67
2018-02-16T04:17:42.036Z,49.27
2018-02-16T04:20:10.384Z,46.83
2018-02-16T04:22:38.752Z,47.07
2018-02-16T04:25:07.089Z,49.53
2018-02-16T04:27:36.197Z,46.60
2018-02-16T04:30:04.559Z,49.57
2018-02-16T04:32:32.893Z,46.73
2018-02-16T04:35:01.296Z,54.40
2018-02-16T04:37:29.637Z,42.87
2018-02-16T04:39:57.993Z,48.23
2018-02-16T04:42:26.336Z,44.87
2018-02-16T04:44:55.472Z,45.60
2018-02-16T04:47:23.845Z,53.07
2018-02-16T04:49:52.200Z,46.33
2018-02-16T04:52:20.548Z,48.57
2018-02-16T04:54:48.878Z,50.40
2018-02-16T04:57:17.224Z,46.90
2018-02-16T04:59:46.320Z,40.50
2018-02-16T05:02:15.453Z,56.37
2018-02-16T05:04:43.793Z,45.03
2018-02-16T05:07:12.175Z,51.23
2018-02-16T05:09:41.268Z,43.20
2018-02-16T05:12:10.372Z,50.33
2018-02-16T05:14:38.705Z,47.80
2018-02-16T05:17:07.061Z,46.63
2018-02-16T05:19:35.397Z,47.93
2018-02-16T05:22:04.512Z,46.67
2018-02-16T05:24:32.834Z,60.87
2018-02-16T05:27:01.302Z,46.57
2018-02-16T05:29:29.628Z,50.83
2018-02-16T05:31:58.731Z,46.30
2018-02-16T05:34:27.088Z,55.90
2018-02-16T05:36:56.210Z,48.30
2018-02-16T05:39:24.576Z,53.23
2018-02-16T05:41:52.916Z,49.33
2018-02-16T05:44:21.248Z,46.27
2018-02-16T05:46:49.604Z,48.77
2018-02-16T05:49:18.712Z,44.90
2018-02-16T05:51:47.060Z,52.27
2018-02-16T05:54:15.412Z,48.53
2018-02-16T05:56:43.803Z,50.50
2018-02-16T05:59:12.127Z,47.33
2018-02-16T06:01:40.498Z,48.77
2018-02-16T06:04:08.872Z,50.70
2018-02-16T06:06:38.020Z,45.67
2018-02-16T06:09:07.136Z,52.37
2018-02-16T06:11:36.264Z,44.90
2018-02-16T06:14:04.577Z,51.60
2018-02-16T06:16:32.949Z,48.30
2018-02-16T06:19:01.298Z,48.70
2018-02-16T06:21:29.687Z,53.43
2018-02-16T06:23:58.056Z,54.13
2018-02-16T06:26:26.373Z,43.63
2018-02-16T06:28:54.719Z,46.27
2018-02-16T06:31:23.064Z,44.60
2018-02-16T06:33:52.189Z,49.43
2018-02-16T06:36:20.524Z,44.07
2018-02-16T06:38:48.882Z,50.27
2018-02-16T06:41:17.224Z,47.73
2018-02-16T06:43:45.565Z,45.43
2018-02-16T06:46:13.929Z,45.20
2018-02-16T06:48:42.352Z,49.63
2018-02-16T06:51:10.759Z,50.70
2018-02-16T06:53:39.101Z,54.37
2018-02-16T06:56:07.920Z,51.23
2018-02-16T06:58:36.258Z,54.90
2018-02-16T07:01:04.643Z,45.60
2018-02-16T07:03:33.022Z,55.27
2018-02-16T07:06:01.501Z,54.27
2018-02-16T07:08:29.861Z,50.23
2018-02-16T07:10:58.947Z,52.40
2018-02-16T07:13:27.360Z,51.07
2018-02-16T07:15:55.697Z,50.23
2018-02-16T07:18:24.079Z,52.50
2018-02-16T07:20:52.438Z,52.97
2018-02-16T07:23:20.798Z,42.67
2018-02-16T07:25:49.129Z,54.93
2018-02-16T07:28:18.244Z,49.10
2018-02-16T07:30:46.714Z,51.70
2018-02-16T07:33:15.052Z,53.80
2018-02-16T07:35:43.413Z,55.37
2018-02-16T07:38:11.805Z,54.27
2018-02-16T07:40:40.921Z,51.83
2018-02-16T07:43:10.070Z,50.63
2018-02-16T07:45:38.404Z,52.27
2018-02-16T07:48:07.493Z,55.30
2018-02-16T07:50:36.615Z,55.10
2018-02-16T07:53:04.963Z,46.47
2018-02-16T07:55:33.355Z,53.50
2018-02-16T07:58:01.723Z,48.53
2018-02-16T08:00:30.121Z,55.73
2018-02-16T08:02:58.461Z,51.83
2018-02-16T08:05:26.806Z,47.67
2018-02-16T08:07:55.146Z,48.97
2018-02-16T08:10:23.501Z,52.57
2018-02-16T08:12:52.607Z,50.17
2018-02-16T08:15:20.988Z,49.47
2018-02-16T08:17:50.068Z,45.77
2018-02-16T08:20:19.177Z,54.60
2018-02-16T08:22:48.297Z,53.40
2018-02-16T08:25:16.652Z,50.23
2018-02-16T08:27:45.009Z,53.07
2018-02-16T08:30:14.135Z,42.00
2018-02-16T08:32:42.508Z,52.57
2018-02-16T08:35:11.600Z,51.73
2018-02-16T08:37:40.713Z,45.37
2018-02-16T08:40:09.051Z,45.57
2018-02-16T08:42:38.168Z,41.77
2018-02-16T08:45:06.528Z,46.80
2018-02-16T08:47:34.876Z,48.03
2018-02-16T08:50:03.253Z,47.53
2018-02-16T08:52:31.605Z,46.63
2018-02-16T08:54:59.928Z,52.47
2018-02-16T08:57:29.057Z,50.17
2018-02-16T08:59:57.380Z,49.17
2018-02-16T09:02:25.768Z,55.47
2018-02-16T09:04:55.256Z,48.40
2018-02-16T09:07:23.596Z,42.83
2018-02-16T09:09:51.920Z,44.43
2018-02-16T09:12:20.301Z,47.33
2018-02-16T09:14:48.658Z,46.87
2018-02-16T09:17:16.998Z,48.70
2018-02-16T09:19:45.357Z,48.97
2018-02-16T09:22:14.472Z,46.40
2018-02-16T09:24:42.796Z,45.80
2018-02-16T09:27:11.169Z,48.10
2018-02-16T09:29:39.504Z,43.80
2018-02-16T09:32:09.215Z,42.03
2018-02-16T09:34:38.184Z,42.80
2018-02-16T09:37:08.713Z,43.73
2018-02-16T09:39:38.720Z,42.77
2018-02-16T09:42:07.076Z,40.33
2018-02-16T09:44:35.469Z,41.00
2018-02-16T09:47:03.796Z,43.27
2018-02-16T09:49:32.161Z,41.30
2018-02-16T09:52:00.492Z,43.13
2018-02-16T09:54:28.863Z,40.33
2018-02-16T09:56:57.192Z,39.63
2018-02-16T09:59:25.516Z,38.73
2018-02-16T10:01:53.877Z,43.40
2018-02-16T10:04:22.225Z,42.83
2018-02-16T10:06:51.341Z,40.10
2018-02-16T10:09:19.699Z,38.77
2018-02-16T10:11:48.065Z,36.27
2018-02-16T10:14:17.161Z,40.33
2018-02-16T10:16:45.521Z,37.37
2018-02-16T10:19:13.900Z,39.93
2018-02-16T10:21:42.997Z,37.07
2018-02-16T10:24:12.125Z,36.10
2018-02-16T10:26:40.500Z,37.70
2018-02-16T10:29:08.884Z,34.50
2018-02-16T10:31:37.237Z,35.90
2018-02-16T10:34:05.607Z,35.10
2018-02-16T10:36:34.697Z,39.10
2018-02-16T10:39:03.081Z,35.03
2018-02-16T10:41:32.206Z,38.33
2018-02-16T10:44:00.559Z,34.47
2018-02-16T10:46:28.898Z,35.93
2018-02-16T10:48:58.045Z,33.40
2018-02-16T10:51:26.373Z,37.10
2018-02-16T10:53:54.728Z,32.80
2018-02-16T10:56:24.269Z,33.17
2018-02-16T10:58:52.611Z,33.60
2018-02-16T11:01:20.980Z,35.37
2018-02-16T11:03:55.011Z,34.27
2018-02-16T11:06:29.021Z,36.47
2018-02-16T11:09:03.077Z,32.00
2018-02-16T11:11:32.189Z,32.20
2018-02-16T11:14:00.534Z,32.77
2018-02-16T11:16:29.969Z,32.83
2018-02-16T11:18:58.292Z,29.37
2018-02-16T11:21:26.616Z,31.30
2018-02-16T11:23:55.718Z,30.47
2018-02-16T11:26:24.113Z,31.67
2018-02-16T11:28:52.442Z,35.27
2018-02-16T11:31:20.768Z,35.73
2018-02-16T11:33:49.116Z,32.57
2018-02-16T11:36:18.224Z,31.37
2018-02-16T11:38:47.361Z,33.40
2018-02-16T11:41:15.696Z,30.57
2018-02-16T11:43:44.069Z,33.93
2018-02-16T11:46:12.426Z,30.57
2018-02-16T11:48:41.548Z,31.40
2018-02-16T11:51:09.919Z,30.97
2018-02-16T11:53:38.301Z,30.70
2018-02-16T11:56:06.676Z,33.37
2018-02-16T11:58:35.060Z,33.53
2018-02-16T12:01:03.393Z,35.27
2018-02-16T12:03:32.636Z,36.67
2018-02-16T12:06:01.018Z,34.33
2018-02-16T12:08:29.376Z,44.23
2018-02-16T12:10:58.496Z,35.90
2018-02-16T12:13:26.836Z,32.30
2018-02-16T12:15:55.972Z,32.83
2018-02-16T12:18:24.349Z,30.27
2018-02-16T12:20:52.722Z,31.87
2018-02-16T12:23:21.116Z,24.93
2018-02-16T12:25:49.531Z,30.17
2018-02-16T12:28:17.905Z,28.30
2018-02-16T12:30:47.049Z,28.37
2018-02-16T12:33:15.380Z,28.33
2018-02-16T12:35:44.595Z,28.57
2018-02-16T12:38:12.908Z,27.77
2018-02-16T12:40:41.281Z,32.37
2018-02-16T12:43:09.652Z,31.27
2018-02-16T12:45:37.973Z,28.00
2018-02-16T12:48:06.328Z,25.43
2018-02-16T12:50:34.661Z,26.70
2018-02-16T12:53:03.749Z,29.73
2018-02-16T12:55:32.868Z,28.60
2018-02-16T12:58:01.200Z,31.97
2018-02-16T13:00:29.561Z,26.27
2018-02-16T13:02:57.876Z,27.70
2018-02-16T13:05:27.004Z,31.43
2018-02-16T13:07:55.326Z,26.80
2018-02-16T13:10:23.698Z,28.77
2018-02-16T13:12:52.040Z,28.23
2018-02-16T13:15:20.393Z,28.60
2018-02-16T13:17:49.523Z,27.00
2018-02-16T13:20:18.265Z,29.47
2018-02-16T13:22:47.361Z,27.20
2018-02-16T13:25:15.716Z,27.73
2018-02-16T13:27:44.864Z,25.83
2018-02-16T13:30:18.105Z,28.70
2018-02-16T13:32:46.468Z,25.20
2018-02-16T13:35:15.609Z,27.43
2018-02-16T13:37:43.975Z,27.67
2018-02-16T13:40:13.450Z,26.57
2018-02-16T13:42:43.335Z,27.50
2018-02-16T13:45:11.660Z,28.53
2018-02-16T13:47:40.001Z,32.57
2018-02-16T13:50:08.347Z,24.33
2018-02-16T13:52:36.689Z,28.67
2018-02-16T13:55:05.032Z,28.33
2018-02-16T13:57:33.368Z,28.70
2018-02-16T14:00:01.724Z,27.07
2018-02-16T14:02:30.036Z,25.33
2018-02-16T14:04:58.434Z,26.90
2018-02-16T14:07:26.869Z,24.80
2018-02-16T14:09:55.970Z,26.07
2018-02-16T14:12:24.380Z,27.83
2018-02-16T14:14:52.706Z,25.13
2018-02-16T14:17:21.068Z,26.23
2018-02-16T14:19:49.392Z,28.37
2018-02-16T14:22:17.742Z,27.33
2018-02-16T14:24:46.894Z,26.57
2018-02-16T14:27:15.252Z,27.63
2018-02-16T14:29:43.630Z,22.80
2018-02-16T14:32:13.580Z,20.97
2018-02-16T14:34:41.926Z,22.80
2018-02-16T14:37:10.284Z,23.53
2018-02-16T14:39:38.656Z,22.93
2018-02-16T14:42:07.760Z,23.13
2018-02-16T14:44:36.126Z,22.47
2018-02-16T14:47:05.218Z,20.43
2018-02-16T14:49:34.420Z,20.53
2018-02-16T14:52:03.615Z,18.90
2018-02-16T14:54:32.737Z,20.70
2018-02-16T14:57:01.057Z,22.83
2018-02-16T14:59:29.401Z,21.87
2018-02-16T15:01:57.739Z,22.37
2018-02-16T15:04:26.878Z,21.50
2018-02-16T15:06:55.224Z,20.83
2018-02-16T15:09:24.353Z,17.67
2018-02-16T15:11:52.687Z,18.80
2018-02-16T15:14:21.797Z,21.97
2018-02-16T15:16:50.923Z,19.20
2018-02-16T15:19:19.276Z,18.73
2018-02-16T15:21:47.625Z,21.93
2018-02-16T15:24:16.703Z,18.63
2018-02-16T15:26:45.849Z,19.67
2018-02-16T15:29:14.168Z,19.30
2018-02-16T15:31:42.492Z,23.10
2018-02-16T15:34:10.860Z,21.00
2018-02-16T15:36:39.961Z,21.10
2018-02-16T15:39:08.342Z,21.60
2018-02-16T15:41:37.451Z,19.37
2018-02-16T15:44:05.814Z,20.70
2018-02-16T15:46:34.173Z,23.33
2018-02-16T15:49:03.290Z,18.90
2018-02-16T15:51:31.737Z,20.73
2018-02-16T15:54:00.880Z,18.97
2018-02-16T15:56:29.239Z,19.00
2018-02-16T15:58:57.577Z,18.17
2018-02-16T16:01:27.072Z,18.83
2018-02-16T16:06:29.952Z,17.13
2018-02-16T16:08:58.284Z,20.20
2018-02-16T16:11:26.653Z,18.30
2018-02-16T16:13:54.962Z,23.10
2018-02-16T16:16:23.339Z,20.87
2018-02-16T16:18:51.690Z,21.50
2018-02-16T16:21:20.060Z,17.20
2018-02-16T16:23:49.192Z,17.27
2018-02-16T16:26:17.538Z,17.23
2018-02-16T16:28:46.652Z,18.00
2018-02-16T16:31:15.032Z,19.53
2018-02-16T16:33:43.389Z,18.73
2018-02-16T16:36:12.587Z,17.00
2018-02-16T16:38:42.735Z,16.50
2018-02-16T16:41:11.045Z,17.30
2018-02-16T16:43:40.219Z,17.63
2018-02-16T16:46:08.593Z,17.80
2018-02-16T16:48:36.904Z,18.57
2018-02-16T16:51:05.313Z,17.33
2018-02-16T16:53:33.635Z,18.50
2018-02-16T16:56:01.988Z,16.63
2018-02-16T16:58:30.367Z,18.57
2018-02-16T17:00:58.728Z,21.07
2018-02-16T17:03:27.092Z,19.90
2018-02-16T17:05:55.888Z,19.80
2018-02-16T17:08:25.022Z,20.53
2018-02-16T17:10:53.360Z,22.90
2018-02-16T17:13:22.456Z,20.20
2018-02-16T17:15:51.580Z,19.23
2018-02-16T17:18:19.920Z,22.03
2018-02-16T17:20:49.049Z,19.03
2018-02-16T17:23:17.373Z,18.40
2018-02-16T17:25:45.729Z,17.40
2018-02-16T17:28:14.057Z,20.20
2018-02-16T17:30:43.177Z,19.17
2018-02-16T17:33:11.525Z,20.07
2018-02-16T17:35:40.650Z,17.83
2018-02-16T17:38:09.773Z,19.07
2018-02-16T17:40:38.120Z,18.53
2018-02-16T17:45:41.932Z,18.67
2018-02-16T17:48:10.268Z,18.63
2018-02-16T17:50:39.401Z,15.20
2018-02-16T17:53:08.515Z,18.73
2018-02-16T17:55:36.845Z,17.47
2018-02-16T17:58:05.213Z,15.57
2018-02-16T18:00:33.544Z,18.80
2018-02-16T18:03:01.929Z,21.80
2018-02-16T18:05:30.260Z,17.40
2018-02-16T18:07:59.396Z,16.13
2018-02-16T18:10:27.721Z,18.30
2018-02-16T18:12:56.847Z,17.23
2018-02-16T18:15:25.209Z,16.27
2018-02-16T18:17:54.305Z,15.60
2018-02-16T18:20:23.440Z,17.27
2018-02-16T18:22:51.805Z,15.93
2018-02-16T18:25:20.183Z,15.23
2018-02-16T18:27:48.521Z,17.80
2018-02-16T18:30:16.878Z,17.50
2018-02-16T18:32:45.228Z,17.10
2018-02-16T18:35:14.006Z,15.47
2018-02-16T18:37:42.344Z,15.60
2018-02-16T18:40:10.705Z,15.77
2018-02-16T18:42:39.028Z,15.23
2018-02-16T18:45:07.358Z,13.67
2018-02-16T18:47:35.725Z,16.97
2018-02-16T18:50:04.118Z,16.80
2018-02-16T18:52:32.448Z,15.83
2018-02-16T18:55:00.780Z,15.97
2018-02-16T18:57:29.136Z,14.70
2018-02-16T18:59:57.456Z,18.33
2018-02-16T19:02:26.572Z,18.80
2018-02-16T19:04:54.932Z,17.90
2018-02-16T19:07:23.304Z,17.23
2018-02-16T19:09:52.412Z,16.60
2018-02-16T19:12:20.748Z,15.60
2018-02-16T19:14:49.105Z,13.90
2018-02-16T19:17:17.432Z,15.13
2018-02-16T19:19:45.810Z,15.90
2018-02-16T19:22:14.905Z,17.03
2018-02-16T19:24:44.036Z,18.13
2018-02-16T19:27:12.405Z,15.30
2018-02-16T19:29:40.765Z,17.93
2018-02-16T19:32:09.103Z,16.70
2018-02-16T19:34:37.472Z,16.57
2018-02-16T19:37:05.824Z,16.37
2018-02-16T19:39:34.884Z,17.00
2018-02-16T19:42:03.992Z,17.63
2018-02-16T19:44:32.356Z,16.27
2018-02-16T19:47:01.465Z,18.67
2018-02-16T19:49:29.796Z,17.80
2018-02-16T19:51:58.157Z,19.10
2018-02-16T19:54:26.497Z,20.07
2018-02-16T19:56:54.858Z,14.50
2018-02-16T19:59:23.972Z,19.60
2018-02-16T20:01:52.306Z,17.47
2018-02-16T20:04:20.672Z,18.63
2018-02-16T20:06:49.025Z,19.70
2018-02-16T20:09:17.353Z,19.20
2018-02-16T20:11:46.480Z,19.23
2018-02-16T20:14:14.845Z,15.60
2018-02-16T20:16:43.180Z,16.60
2018-02-16T20:19:11.559Z,19.17
2018-02-16T20:21:39.897Z,15.30
2018-02-16T20:24:08.264Z,17.57
2018-02-16T20:26:36.844Z,16.60
2018-02-16T20:29:05.180Z,17.20
2018-02-16T20:31:33.536Z,17.07
2018-02-16T20:34:02.693Z,16.43
2018-02-16T20:36:31.809Z,17.00
2018-02-16T20:39:00.130Z,18.37
2018-02-16T20:41:29.264Z,19.00
2018-02-16T20:43:57.606Z,19.07
2018-02-16T20:46:26.849Z,17.77
2018-02-16T20:48:55.221Z,16.67
2018-02-16T20:51:23.556Z,17.57
2018-02-16T20:53:51.913Z,15.57
2018-02-16T20:56:20.268Z,16.90
2018-02-16T20:58:48.588Z,17.47
2018-02-16T21:01:16.953Z,19.50
2018-02-16T21:03:45.280Z,18.93
2018-02-16T21:06:13.641Z,20.87
2018-02-16T21:08:42.741Z,16.43
2018-02-16T21:11:11.868Z,17.70
2018-02-16T21:13:40.187Z,19.63
2018-02-16T21:16:08.529Z,18.93
2018-02-16T21:18:36.885Z,20.63
2018-02-16T21:21:05.249Z,17.20
2018-02-16T21:23:34.383Z,16.73
2018-02-16T21:26:03.141Z,17.53
2018-02-16T21:28:31.503Z,18.63
2018-02-16T21:31:00.106Z,19.00
2018-02-16T21:33:28.509Z,19.10
2018-02-16T21:35:56.856Z,18.17
2018-02-16T21:38:25.304Z,18.20
2018-02-16T21:40:53.650Z,18.87
2018-02-16T21:43:21.980Z,18.00
2018-02-16T21:45:50.340Z,21.73
2018-02-16T21:48:19.462Z,18.47
2018-02-16T21:50:48.583Z,18.87
2018-02-16T21:53:16.908Z,18.90
2018-02-16T21:55:45.728Z,19.57
2018-02-16T21:58:14.076Z,17.87
2018-02-16T22:00:42.428Z,20.50
2018-02-16T22:03:10.765Z,20.13
2018-02-16T22:05:39.139Z,22.60
2018-02-16T22:08:07.517Z,21.97
2018-02-16T22:10:35.865Z,20.27
2018-02-16T22:13:04.960Z,18.93
2018-02-16T22:15:34.092Z,22.63
2018-02-16T22:18:02.449Z,17.27
2018-02-16T22:20:30.788Z,16.50
2018-02-16T22:22:59.917Z,18.10
2018-02-16T22:25:29.044Z,19.17
2018-02-16T22:27:57.519Z,17.93
2018-02-16T22:30:25.853Z,20.40
2018-02-16T22:32:54.175Z,17.40
2018-02-16T22:35:22.524Z,19.70
2018-02-16T22:37:51.649Z,17.97
2018-02-16T22:40:19.999Z,18.90
2018-02-16T22:42:49.093Z,19.87
2018-02-16T22:45:17.488Z,20.23
2018-02-16T22:47:45.812Z,21.33
2018-02-16T22:50:14.163Z,21.03
2018-02-16T22:52:42.538Z,20.30
2018-02-16T22:55:11.097Z,21.40
2018-02-16T22:57:39.465Z,19.33
2018-02-16T23:00:08.578Z,17.27
2018-02-16T23:02:36.930Z,17.10
2018-02-16T23:05:05.321Z,20.00
2018-02-16T23:07:33.695Z,19.90
2018-02-16T23:10:02.825Z,17.80
2018-02-16T23:12:31.152Z,18.87
2018-02-16T23:15:00.275Z,17.10
2018-02-16T23:17:28.654Z,22.73
2018-02-16T23:19:57.741Z,19.53
2018-02-16T23:22:26.112Z,21.93
2018-02-16T23:24:55.316Z,18.90
2018-02-16T23:27:23.692Z,21.23
2018-02-16T23:29:52.055Z,19.77
2018-02-16T23:32:21.160Z,19.07
2018-02-16T23:34:50.296Z,19.27
2018-02-16T23:37:18.634Z,20.53
2018-02-16T23:39:47.001Z,18.87
2018-02-16T23:44:43.749Z,21.40
2018-02-16T23:47:12.087Z,20.00
2018-02-16T23:49:41.213Z,23.53
2018-02-16T23:52:09.555Z,20.47
2018-02-16T23:54:38.662Z,19.50
2018-02-16T23:57:07.786Z,21.10
2018-02-16T23:59:36.120Z,19.47
